createdAt,value
2024-01-29T06:05:13.095Z,17.58
2024-01-29T06:15:15.603Z,20.50
2024-01-29T06:25:21.778Z,14.52
2024-01-29T06:35:25.227Z,11.80
2024-01-29T06:45:27.819Z,11.57
2024-01-29T06:55:30.154Z,12.35
2024-01-29T07:05:32.537Z,15.20
2024-01-29T07:15:35.328Z,19.13
2024-01-29T07:25:41.375Z,18.50
2024-01-29T07:35:43.738Z,15.82
2024-01-29T07:45:46.135Z,18.20
2024-01-29T07:55:48.454Z,13.68
2024-01-29T08:05:51.016Z,18.50
2024-01-29T08:15:53.478Z,20.73
2024-01-29T08:25:55.947Z,21.60
2024-01-29T08:35:58.535Z,19.75
2024-01-29T08:46:01.488Z,7.50
2024-01-29T08:56:08.082Z,10.10
2024-01-29T09:06:10.495Z,11.43
2024-01-29T09:16:13.670Z,22.88
2024-01-29T09:41:00.263Z,14.13
2024-01-29T09:51:04.150Z,20.00
2024-01-29T10:01:10.649Z,15.73
2024-01-29T10:11:13.133Z,29.65
2024-01-29T10:21:15.495Z,12.18
2024-01-29T10:31:17.894Z,10.90
2024-01-29T10:41:22.399Z,8.40
2024-01-29T10:51:25.916Z,10.57
2024-01-29T11:01:29.926Z,7.75
2024-01-29T11:11:32.725Z,11.07
2024-01-29T11:21:35.270Z,9.43
2024-01-29T11:31:43.631Z,7.95
2024-01-29T11:41:50.395Z,7.50
2024-01-29T11:51:55.143Z,8.50
2024-01-29T12:01:58.651Z,6.90
2024-01-29T12:12:01.002Z,6.97
2024-01-29T12:22:03.579Z,6.60
2024-01-29T12:32:10.309Z,7.85
2024-01-29T12:42:15.512Z,6.22
2024-01-29T12:52:18.036Z,9.18
2024-01-29T13:02:22.086Z,8.43
2024-01-29T13:12:24.409Z,10.57
2024-01-29T13:22:26.912Z,8.75
2024-01-29T13:32:29.476Z,7.72
2024-01-29T13:42:32.233Z,7.28
2024-01-29T13:52:34.704Z,5.28
2024-01-29T14:02:37.174Z,8.43
2024-01-29T14:23:42.304Z,7.30
2024-01-29T14:33:45.699Z,6.97
2024-01-29T14:43:48.997Z,10.65
2024-01-29T14:53:51.437Z,7.22
2024-01-29T15:03:53.910Z,10.48
2024-01-29T15:13:56.667Z,8.57
2024-01-29T15:24:00.862Z,5.18
2024-01-29T15:34:03.461Z,13.68
2024-01-29T15:44:05.908Z,11.80
2024-01-29T15:54:08.384Z,13.75
2024-01-29T16:04:12.780Z,12.70
2024-01-29T16:14:15.167Z,23.63
2024-01-29T16:24:17.578Z,21.55
2024-01-29T16:34:21.605Z,36.00
2024-01-29T16:44:23.963Z,43.05
2024-01-29T16:54:26.580Z,37.42
2024-01-29T17:04:29.147Z,72.97
2024-01-29T17:14:31.570Z,27.00
2024-01-29T17:24:33.962Z,12.75
2024-01-29T17:34:39.240Z,11.63
2024-01-29T17:44:41.966Z,5.97
2024-01-29T17:54:44.347Z,14.98
2024-01-29T18:04:46.926Z,6.88
2024-01-29T18:14:49.864Z,7.93
2024-01-29T18:24:55.405Z,13.70
2024-01-29T18:34:57.878Z,22.55
2024-01-29T18:45:00.349Z,20.48
2024-01-29T18:55:02.955Z,18.88
2024-01-29T19:05:06.041Z,17.98
2024-01-29T19:15:09.151Z,39.85
2024-01-29T19:25:12.216Z,45.28
2024-01-29T19:35:14.842Z,46.13
2024-01-29T19:45:17.979Z,58.10
2024-01-29T19:55:20.406Z,37.22
2024-01-29T20:05:23.327Z,30.48
2024-01-29T20:15:25.694Z,37.80
2024-01-29T20:25:28.083Z,49.15
2024-01-29T20:35:30.447Z,30.85
2024-01-29T20:45:33.585Z,44.83
2024-01-29T20:55:36.103Z,42.47
2024-01-29T21:10:11.214Z,57.63
2024-01-29T21:20:14.254Z,48.67
2024-01-29T21:30:16.589Z,70.05
2024-01-29T21:40:19.179Z,42.17
2024-01-29T21:50:21.569Z,43.92
2024-01-29T22:00:23.926Z,68.07
2024-01-29T22:10:26.388Z,31.20
